Time,TemperatureF,DewpointF,PressureIn,WindDirection,WindDirectionDegrees,WindSpeedMPH,WindSpeedGustMPH,Humidity,HourlyPrecipIn,Conditions,Clouds,dailyrainin,SoftwareType,DateUTC
2013-04-24 00:00:00,32.0,18.5,30.27,South,180,2.0,5.0,57,0.00,,,0.00,meteohub,2013-04-24 05:00:00,
2013-04-24 00:05:00,32.0,18.5,30.27,SW,225,2.0,4.0,57,0.00,,,0.00,meteohub,2013-04-24 05:05:00,
2013-04-24 00:10:00,32.0,18.9,30.27,SE,135,4.0,5.0,58,0.00,,,0.00,meteohub,2013-04-24 05:10:00,
2013-04-24 00:15:00,31.8,19.0,30.27,East,90,1.0,5.0,59,0.00,,,0.00,meteohub,2013-04-24 05:15:00,
2013-04-24 00:20:00,31.6,19.0,30.27,South,180,2.0,4.0,59,0.00,,,0.00,meteohub,2013-04-24 05:20:00,
2013-04-24 00:25:00,31.5,18.9,30.27,SW,225,2.0,4.0,59,0.00,,,0.00,meteohub,2013-04-24 05:25:00,
2013-04-24 00:30:00,31.5,19.2,30.27,South,180,2.0,3.0,60,0.00,,,0.00,meteohub,2013-04-24 05:30:00,
2013-04-24 00:35:00,31.3,19.4,30.27,South,180,2.0,3.0,61,0.00,,,0.00,meteohub,2013-04-24 05:35:00,
2013-04-24 00:40:00,31.3,19.4,30.27,South,180,1.0,4.0,61,0.00,,,0.00,meteohub,2013-04-24 05:40:00,
2013-04-24 00:45:00,31.1,19.2,30.27,South,180,3.0,4.0,61,0.00,,,0.00,meteohub,2013-04-24 05:45:00,
2013-04-24 00:50:00,31.1,19.2,30.27,East,90,2.0,4.0,61,0.00,,,0.00,meteohub,2013-04-24 05:50:00,
2013-04-24 00:55:00,30.9,19.0,30.26,SE,135,0.0,3.0,61,0.00,,,0.00,meteohub,2013-04-24 05:55:00,
2013-04-24 01:01:00,30.9,19.0,30.26,SE,135,1.0,3.0,61,0.00,,,0.00,meteohub,2013-04-24 06:01:00,
2013-04-24 01:06:00,30.9,19.0,30.26,SE,135,1.0,3.0,61,0.00,,,0.00,meteohub,2013-04-24 06:06:00,
2013-04-24 01:11:00,30.6,18.7,30.26,SE,135,2.0,3.0,61,0.00,,,0.00,meteohub,2013-04-24 06:11:00,
2013-04-24 01:16:00,30.2,18.3,30.26,South,180,3.0,3.0,61,0.00,,,0.00,meteohub,2013-04-24 06:16:00,
2013-04-24 01:21:00,30.0,18.5,30.26,South,180,3.0,3.0,62,0.00,,,0.00,meteohub,2013-04-24 06:21:00,
2013-04-24 01:26:00,30.0,19.0,30.26,South,180,1.0,4.0,63,0.00,,,0.00,meteohub,2013-04-24 06:26:00,
2013-04-24 01:31:00,29.8,18.9,30.26,SE,135,2.0,4.0,63,0.00,,,0.00,meteohub,2013-04-24 06:31:00,
2013-04-24 01:36:00,29.8,18.9,30.26,SE,135,1.0,4.0,63,0.00,,,0.00,meteohub,2013-04-24 06:36:00,
2013-04-24 01:41:00,29.7,18.7,30.26,East,90,0.0,2.0,63,0.00,,,0.00,meteohub,2013-04-24 06:41:00,
2013-04-24 01:46:00,29.5,18.5,30.26,East,90,1.0,2.0,63,0.00,,,0.00,meteohub,2013-04-24 06:46:00,
2013-04-24 01:51:00,29.1,18.1,30.26,NE,45,1.0,2.0,63,0.00,,,0.00,meteohub,2013-04-24 06:51:00,
2013-04-24 01:56:00,28.9,18.0,30.26,NE,45,1.0,2.0,63,0.00,,,0.00,meteohub,2013-04-24 06:56:00,
2013-04-24 02:01:00,28.8,17.8,30.25,NE,45,2.0,2.0,63,0.00,,,0.00,meteohub,2013-04-24 07:01:00,
2013-04-24 02:06:00,28.8,18.1,30.25,ENE,68,1.0,2.0,64,0.00,,,0.00,meteohub,2013-04-24 07:06:00,
2013-04-24 02:11:00,28.6,18.0,30.26,East,90,1.0,2.0,64,0.00,,,0.00,meteohub,2013-04-24 07:11:00,
2013-04-24 02:16:00,28.4,17.8,30.25,SE,135,2.0,2.0,64,0.00,,,0.00,meteohub,2013-04-24 07:16:00,
2013-04-24 02:21:00,28.4,18.1,30.25,SE,135,2.0,2.0,65,0.00,,,0.00,meteohub,2013-04-24 07:21:00,
2013-04-24 02:26:00,28.4,18.1,30.25,SE,135,2.0,2.0,65,0.00,,,0.00,meteohub,2013-04-24 07:26:00,
2013-04-24 02:31:00,28.2,16.5,30.26,SE,135,2.0,2.0,61,0.00,,,0.00,meteohub,2013-04-24 07:31:00,
2013-04-24 02:36:00,28.0,16.3,30.26,East,90,2.0,3.0,61,0.00,,,0.00,meteohub,2013-04-24 07:36:00,
2013-04-24 02:41:00,28.0,16.3,30.26,East,90,2.0,3.0,61,0.00,,,0.00,meteohub,2013-04-24 07:41:00,
2013-04-24 02:46:00,27.9,16.2,30.25,East,90,2.0,3.0,61,0.00,,,0.00,meteohub,2013-04-24 07:46:00,
2013-04-24 02:51:00,27.7,16.3,30.25,East,90,2.0,2.0,62,0.00,,,0.00,meteohub,2013-04-24 07:51:00,
2013-04-24 02:56:00,27.7,16.3,30.25,East,90,2.0,2.0,62,0.00,,,0.00,meteohub,2013-04-24 07:56:00,
2013-04-24 03:01:00,27.7,16.3,30.25,SE,135,1.0,2.0,62,0.00,,,0.00,meteohub,2013-04-24 08:01:00,
2013-04-24 03:06:00,27.7,16.3,30.25,SE,135,1.0,2.0,62,0.00,,,0.00,meteohub,2013-04-24 08:06:00,
2013-04-24 03:11:00,27.5,16.5,30.25,East,90,1.0,2.0,63,0.00,,,0.00,meteohub,2013-04-24 08:11:00,
2013-04-24 03:16:00,27.5,16.5,30.25,East,90,2.0,2.0,63,0.00,,,0.00,meteohub,2013-04-24 08:16:00,
2013-04-24 03:21:00,27.5,16.5,30.26,SE,135,2.0,2.0,63,0.00,,,0.00,meteohub,2013-04-24 08:21:00,
2013-04-24 03:26:00,27.5,16.5,30.26,SE,135,2.0,2.0,63,0.00,,,0.00,meteohub,2013-04-24 08:26:00,
2013-04-24 03:32:00,27.5,16.9,30.26,East,90,2.0,3.0,64,0.00,,,0.00,meteohub,2013-04-24 08:32:00,
2013-04-24 03:37:00,27.3,16.7,30.25,SE,135,1.0,3.0,64,0.00,,,0.00,meteohub,2013-04-24 08:37:00,
2013-04-24 03:42:00,27.3,16.7,30.25,SE,135,2.0,3.0,64,0.00,,,0.00,meteohub,2013-04-24 08:42:00,
2013-04-24 03:47:00,27.3,16.7,30.26,NE,45,2.0,2.0,64,0.00,,,0.00,meteohub,2013-04-24 08:47:00,
2013-04-24 03:52:00,27.1,16.5,30.25,East,90,2.0,2.0,64,0.00,,,0.00,meteohub,2013-04-24 08:52:00,
2013-04-24 03:57:00,27.1,16.5,30.25,SE,135,2.0,2.0,64,0.00,,,0.00,meteohub,2013-04-24 08:57:00,
2013-04-24 04:02:00,27.1,16.9,30.25,East,90,2.0,2.0,65,0.00,,,0.00,meteohub,2013-04-24 09:02:00,
2013-04-24 04:07:00,27.3,17.1,30.25,East,90,2.0,3.0,65,0.00,,,0.00,meteohub,2013-04-24 09:07:00,
2013-04-24 04:12:00,27.3,17.1,30.25,SE,135,3.0,3.0,65,0.00,,,0.00,meteohub,2013-04-24 09:12:00,
2013-04-24 04:17:00,27.3,17.4,30.25,ENE,68,3.0,3.0,66,0.00,,,0.00,meteohub,2013-04-24 09:17:00,
2013-04-24 04:22:00,27.3,17.4,30.25,East,90,2.0,3.0,66,0.00,,,0.00,meteohub,2013-04-24 09:22:00,
2013-04-24 04:27:00,27.1,17.2,30.25,ESE,113,4.0,4.0,66,0.00,,,0.00,meteohub,2013-04-24 09:27:00,
2013-04-24 04:32:00,27.3,17.8,30.25,East,90,2.0,4.0,67,0.00,,,0.00,meteohub,2013-04-24 09:32:00,
2013-04-24 04:37:00,27.3,17.8,30.24,East,90,2.0,4.0,67,0.00,,,0.00,meteohub,2013-04-24 09:37:00,
2013-04-24 04:42:00,27.3,17.8,30.25,East,90,2.0,4.0,67,0.00,,,0.00,meteohub,2013-04-24 09:42:00,
2013-04-24 04:47:00,27.1,17.6,30.25,NE,45,4.0,4.0,67,0.00,,,0.00,meteohub,2013-04-24 09:47:00,
2013-04-24 04:52:00,27.1,18.0,30.25,East,90,4.0,4.0,68,0.00,,,0.00,meteohub,2013-04-24 09:52:00,
2013-04-24 04:57:00,27.1,18.0,30.25,East,90,2.0,4.0,68,0.00,,,0.00,meteohub,2013-04-24 09:57:00,
2013-04-24 05:02:00,27.1,18.0,30.25,East,90,2.0,4.0,68,0.00,,,0.00,meteohub,2013-04-24 10:02:00,
2013-04-24 05:07:00,27.1,18.0,30.24,East,90,2.0,4.0,68,0.00,,,0.00,meteohub,2013-04-24 10:07:00,
2013-04-24 05:12:00,27.0,17.8,30.25,East,90,2.0,4.0,68,0.00,,,0.00,meteohub,2013-04-24 10:12:00,
2013-04-24 05:17:00,27.0,18.1,30.25,East,90,4.0,4.0,69,0.00,,,0.00,meteohub,2013-04-24 10:17:00,
2013-04-24 05:22:00,27.0,18.1,30.25,East,90,2.0,4.0,69,0.00,,,0.00,meteohub,2013-04-24 10:22:00,
2013-04-24 05:27:00,27.0,18.1,30.25,NE,45,2.0,4.0,69,0.00,,,0.00,meteohub,2013-04-24 10:27:00,
2013-04-24 05:32:00,27.0,18.1,30.24,SE,135,3.0,4.0,69,0.00,,,0.00,meteohub,2013-04-24 10:32:00,
2013-04-24 05:37:00,27.0,18.5,30.24,NE,45,4.0,4.0,70,0.00,,,0.00,meteohub,2013-04-24 10:37:00,
2013-04-24 05:42:00,26.8,18.3,30.23,NE,45,2.0,4.0,70,0.00,,,0.00,meteohub,2013-04-24 10:42:00,
2013-04-24 05:47:00,26.8,18.3,30.24,NE,45,3.0,4.0,70,0.00,,,0.00,meteohub,2013-04-24 10:47:00,
2013-04-24 05:52:00,26.8,18.3,30.23,ESE,113,3.0,4.0,70,0.00,,,0.00,meteohub,2013-04-24 10:52:00,
2013-04-24 05:57:00,26.8,18.7,30.23,NE,45,2.0,4.0,71,0.00,,,0.00,meteohub,2013-04-24 10:57:00,
2013-04-24 06:02:00,26.8,18.7,30.24,SE,135,1.0,4.0,71,0.00,,,0.00,meteohub,2013-04-24 11:02:00,
2013-04-24 06:07:00,26.8,18.7,30.23,NE,45,2.0,4.0,71,0.00,,,0.00,meteohub,2013-04-24 11:07:00,
2013-04-24 06:12:00,26.8,18.7,30.23,East,90,2.0,4.0,71,0.00,,,0.00,meteohub,2013-04-24 11:12:00,
2013-04-24 06:17:00,26.8,19.0,30.23,NE,45,3.0,4.0,72,0.00,,,0.00,meteohub,2013-04-24 11:17:00,
2013-04-24 06:22:00,26.8,19.0,30.23,NE,45,4.0,4.0,72,0.00,,,0.00,meteohub,2013-04-24 11:22:00,
2013-04-24 06:27:00,27.0,19.2,30.22,East,90,4.0,4.0,72,0.00,,,0.00,meteohub,2013-04-24 11:27:00,
2013-04-24 06:32:00,27.0,19.4,30.23,NE,45,3.0,4.0,73,0.00,,,0.00,meteohub,2013-04-24 11:32:00,
2013-04-24 06:37:00,27.1,19.6,30.22,NE,45,4.0,4.0,73,0.00,,,0.00,meteohub,2013-04-24 11:37:00,
2013-04-24 06:42:00,27.1,19.6,30.23,SSW,203,4.0,4.0,73,0.00,,,0.00,meteohub,2013-04-24 11:42:00,
2013-04-24 06:47:00,27.3,19.8,30.22,East,90,4.0,5.0,73,0.00,,,0.00,meteohub,2013-04-24 11:47:00,
2013-04-24 06:52:00,27.5,20.3,30.22,East,90,4.0,5.0,74,0.00,,,0.00,meteohub,2013-04-24 11:52:00,
2013-04-24 06:57:00,27.7,20.5,30.22,East,90,5.0,5.0,74,0.00,,,0.00,meteohub,2013-04-24 11:57:00,
2013-04-24 07:02:00,27.9,20.7,30.22,East,90,4.0,6.0,74,0.00,,,0.00,meteohub,2013-04-24 12:02:00,
2013-04-24 07:07:00,28.2,21.4,30.22,East,90,2.0,9.0,75,0.00,,,0.00,meteohub,2013-04-24 12:07:00,
2013-04-24 07:12:00,28.6,22.8,30.23,SE,135,3.0,9.0,79,0.00,,,0.00,meteohub,2013-04-24 12:12:00,
2013-04-24 07:17:00,28.9,23.2,30.23,ENE,68,5.0,9.0,79,0.00,,,0.00,meteohub,2013-04-24 12:17:00,
2013-04-24 07:22:00,29.1,23.2,30.22,NE,45,4.0,8.0,78,0.00,,,0.00,meteohub,2013-04-24 12:22:00,
2013-04-24 07:27:00,29.5,23.5,30.22,East,90,8.0,12.0,78,0.00,,,0.00,meteohub,2013-04-24 12:27:00,
2013-04-24 07:32:00,29.7,23.4,30.23,East,90,5.0,12.0,77,0.00,,,0.00,meteohub,2013-04-24 12:32:00,
2013-04-24 07:37:00,30.0,23.4,30.22,ENE,68,4.0,12.0,76,0.00,,,0.00,meteohub,2013-04-24 12:37:00,
2013-04-24 07:42:00,30.2,23.0,30.22,East,90,6.0,9.0,74,0.00,,,0.00,meteohub,2013-04-24 12:42:00,
2013-04-24 07:47:00,30.4,23.2,30.22,NE,45,8.0,9.0,74,0.00,,,0.00,meteohub,2013-04-24 12:47:00,
2013-04-24 07:52:00,30.6,23.0,30.22,NE,45,4.0,10.0,73,0.00,,,0.00,meteohub,2013-04-24 12:52:00,
2013-04-24 07:57:00,30.9,23.4,30.22,East,90,5.0,10.0,73,0.00,,,0.00,meteohub,2013-04-24 12:57:00,
2013-04-24 08:02:00,31.3,23.4,30.22,ESE,113,4.0,10.0,72,0.00,,,0.00,meteohub,2013-04-24 13:02:00,
2013-04-24 08:07:00,31.8,23.9,30.22,East,90,5.0,9.0,72,0.00,,,0.00,meteohub,2013-04-24 13:07:00,
2013-04-24 08:12:00,32.0,23.4,30.22,ENE,68,4.0,8.0,70,0.00,,,0.00,meteohub,2013-04-24 13:12:00,
2013-04-24 08:17:00,32.2,23.5,30.22,East,90,8.0,10.0,70,0.00,,,0.00,meteohub,2013-04-24 13:17:00,
2013-04-24 08:22:00,32.4,23.0,30.22,SE,135,6.0,10.0,68,0.00,,,0.00,meteohub,2013-04-24 13:22:00,
2013-04-24 08:27:00,32.7,23.4,30.22,SE,135,4.0,10.0,68,0.00,,,0.00,meteohub,2013-04-24 13:27:00,
2013-04-24 08:32:00,33.3,23.9,30.22,East,90,5.0,10.0,68,0.00,,,0.00,meteohub,2013-04-24 13:32:00,
2013-04-24 08:37:00,33.8,24.1,30.21,NE,45,3.0,8.0,67,0.00,,,0.00,meteohub,2013-04-24 13:37:00,
2013-04-24 08:42:00,34.0,23.0,30.21,East,90,10.0,10.0,64,0.00,,,0.00,meteohub,2013-04-24 13:42:00,
2013-04-24 08:47:00,34.2,22.8,30.21,NE,45,8.0,11.0,63,0.00,,,0.00,meteohub,2013-04-24 13:47:00,
2013-04-24 08:52:00,34.2,22.8,30.21,SE,135,8.0,11.0,63,0.00,,,0.00,meteohub,2013-04-24 13:52:00,
2013-04-24 08:57:00,34.3,23.0,30.21,NE,45,5.0,10.0,63,0.00,,,0.00,meteohub,2013-04-24 13:57:00,
2013-04-24 09:02:00,35.1,23.4,30.21,East,90,8.0,10.0,62,0.00,,,0.00,meteohub,2013-04-24 14:02:00,
2013-04-24 09:07:00,35.2,23.5,30.21,ENE,68,11.0,11.0,62,0.00,,,0.00,meteohub,2013-04-24 14:07:00,
2013-04-24 09:12:00,35.8,23.2,30.20,SE,135,8.0,11.0,60,0.00,,,0.00,meteohub,2013-04-24 14:12:00,
2013-04-24 09:17:00,36.0,23.4,30.20,East,90,10.0,11.0,60,0.00,,,0.00,meteohub,2013-04-24 14:17:00,
2013-04-24 09:22:00,36.0,23.4,30.21,East,90,10.0,11.0,60,0.00,,,0.00,meteohub,2013-04-24 14:22:00,
2013-04-24 09:27:00,36.5,23.5,30.21,SE,135,6.0,10.0,59,0.00,,,0.00,meteohub,2013-04-24 14:27:00,
2013-04-24 09:32:00,36.9,23.9,30.20,East,90,11.0,13.0,59,0.00,,,0.00,meteohub,2013-04-24 14:32:00,
2013-04-24 09:37:00,36.7,23.4,30.20,East,90,8.0,13.0,58,0.00,,,0.00,meteohub,2013-04-24 14:37:00,
2013-04-24 09:42:00,37.0,24.1,30.19,East,90,10.0,14.0,59,0.00,,,0.00,meteohub,2013-04-24 14:42:00,
2013-04-24 09:47:00,37.4,25.5,30.20,East,90,7.0,14.0,62,0.00,,,0.00,meteohub,2013-04-24 14:47:00,
2013-04-24 09:52:00,37.9,26.1,30.20,NE,45,9.0,14.0,62,0.00,,,0.00,meteohub,2013-04-24 14:52:00,
2013-04-24 09:57:00,38.3,26.4,30.20,East,90,9.0,11.0,62,0.00,,,0.00,meteohub,2013-04-24 14:57:00,
2013-04-24 10:02:00,38.8,26.6,30.20,ESE,113,10.0,11.0,61,0.00,,,0.00,meteohub,2013-04-24 15:02:00,
2013-04-24 10:09:00,39.6,26.8,30.20,East,90,10.0,11.0,60,0.00,,,0.00,meteohub,2013-04-24 15:09:00,
2013-04-24 10:15:00,40.3,26.6,30.20,East,90,9.0,11.0,58,0.00,,,0.00,meteohub,2013-04-24 15:15:00,
2013-04-24 10:20:00,40.5,26.4,30.20,East,90,11.0,14.0,57,0.00,,,0.00,meteohub,2013-04-24 15:20:00,
2013-04-24 10:25:00,41.0,26.1,30.20,East,90,7.0,14.0,55,0.00,,,0.00,meteohub,2013-04-24 15:25:00,
2013-04-24 10:30:00,41.5,26.6,30.20,South,180,5.0,14.0,55,0.00,,,0.00,meteohub,2013-04-24 15:30:00,
2013-04-24 10:35:00,42.4,27.5,30.19,North,0,4.0,11.0,55,0.00,,,0.00,meteohub,2013-04-24 15:35:00,
2013-04-24 10:40:00,43.0,27.0,30.19,East,90,7.0,11.0,53,0.00,,,0.00,meteohub,2013-04-24 15:40:00,
2013-04-24 10:45:00,43.2,26.2,30.19,NE,45,14.0,14.0,51,0.00,,,0.00,meteohub,2013-04-24 15:45:00,
2013-04-24 10:50:00,42.6,25.7,30.19,North,0,8.0,10.0,51,0.00,,,0.00,meteohub,2013-04-24 15:50:00,
2013-04-24 10:55:00,43.3,25.9,30.19,SE,135,8.0,14.0,50,0.00,,,0.00,meteohub,2013-04-24 15:55:00,
2013-04-24 11:00:00,43.5,26.1,30.19,East,90,11.0,14.0,50,0.00,,,0.00,meteohub,2013-04-24 16:00:00,
2013-04-24 11:05:00,43.5,26.1,30.19,East,90,11.0,14.0,50,0.00,,,0.00,meteohub,2013-04-24 16:05:00,
2013-04-24 11:10:00,44.4,26.4,30.19,SE,135,9.0,13.0,49,0.00,,,0.00,meteohub,2013-04-24 16:10:00,
2013-04-24 11:15:00,44.8,26.2,30.18,East,90,15.0,15.0,48,0.00,,,0.00,meteohub,2013-04-24 16:15:00,
2013-04-24 11:20:00,44.8,25.7,30.18,East,90,9.0,17.0,47,0.00,,,0.00,meteohub,2013-04-24 16:20:00,
2013-04-24 11:25:00,45.3,25.7,30.18,SE,135,14.0,17.0,46,0.00,,,0.00,meteohub,2013-04-24 16:25:00,
2013-04-24 11:30:00,45.1,25.0,30.18,East,90,10.0,17.0,45,0.00,,,0.00,meteohub,2013-04-24 16:30:00,
2013-04-24 11:35:00,45.5,25.9,30.19,SE,135,13.0,17.0,46,0.00,,,0.00,meteohub,2013-04-24 16:35:00,
2013-04-24 11:40:00,45.9,25.7,30.18,ENE,68,21.0,21.0,45,0.00,,,0.00,meteohub,2013-04-24 16:40:00,
2013-04-24 11:45:00,45.7,25.0,30.18,SE,135,8.0,21.0,44,0.00,,,0.00,meteohub,2013-04-24 16:45:00,
2013-04-24 11:50:00,46.6,25.9,30.18,ESE,113,22.0,22.0,44,0.00,,,0.00,meteohub,2013-04-24 16:50:00,
2013-04-24 11:55:00,46.4,25.2,30.17,East,90,13.0,22.0,43,0.00,,,0.00,meteohub,2013-04-24 16:55:00,
2013-04-24 12:00:00,47.1,26.2,30.17,ESE,113,17.0,22.0,44,0.00,,,0.00,meteohub,2013-04-24 17:00:00,
2013-04-24 12:05:00,47.5,26.1,30.17,SE,135,15.0,22.0,43,0.00,,,0.00,meteohub,2013-04-24 17:05:00,
2013-04-24 12:11:00,47.8,25.9,30.16,East,90,15.0,22.0,42,0.00,,,0.00,meteohub,2013-04-24 17:11:00,
2013-04-24 12:16:00,47.5,25.5,30.17,SE,135,15.0,22.0,42,0.00,,,0.00,meteohub,2013-04-24 17:16:00,
2013-04-24 12:21:00,48.0,26.1,30.16,SE,135,15.0,22.0,42,0.00,,,0.00,meteohub,2013-04-24 17:21:00,
2013-04-24 12:26:00,48.6,25.9,30.16,SE,135,13.0,20.0,41,0.00,,,0.00,meteohub,2013-04-24 17:26:00,
2013-04-24 12:31:00,48.4,23.4,30.15,SE,135,16.0,20.0,37,0.00,,,0.00,meteohub,2013-04-24 17:31:00,
2013-04-24 12:36:00,48.4,24.6,30.15,East,90,14.0,21.0,39,0.00,,,0.00,meteohub,2013-04-24 17:36:00,
2013-04-24 12:41:00,48.6,22.8,30.15,SSE,158,15.0,21.0,36,0.00,,,0.00,meteohub,2013-04-24 17:41:00,
2013-04-24 12:46:00,48.6,22.8,30.15,SE,135,18.0,22.0,36,0.00,,,0.00,meteohub,2013-04-24 17:46:00,
2013-04-24 12:51:00,48.6,22.8,30.15,SE,135,18.0,22.0,36,0.00,,,0.00,meteohub,2013-04-24 17:51:00,
2013-04-24 12:56:00,48.6,22.1,30.15,East,90,25.0,25.0,35,0.00,,,0.00,meteohub,2013-04-24 17:56:00,
2013-04-24 13:01:00,48.6,22.1,30.14,ESE,113,21.0,27.0,35,0.00,,,0.00,meteohub,2013-04-24 18:01:00,
2013-04-24 13:06:00,48.6,22.1,30.14,ESE,113,21.0,27.0,35,0.00,,,0.00,meteohub,2013-04-24 18:06:00,
2013-04-24 13:11:00,49.5,23.5,30.14,SE,135,8.0,27.0,36,0.00,,,0.00,meteohub,2013-04-24 18:11:00,
2013-04-24 13:16:00,50.0,23.4,30.14,ESE,113,25.0,25.0,35,0.00,,,0.00,meteohub,2013-04-24 18:16:00,
2013-04-24 13:21:00,50.0,22.1,30.13,NE,45,18.0,26.0,33,0.00,,,0.00,meteohub,2013-04-24 18:21:00,
2013-04-24 13:26:00,50.0,22.1,30.13,NE,45,13.0,26.0,33,0.00,,,0.00,meteohub,2013-04-24 18:26:00,
2013-04-24 13:31:00,49.6,22.5,30.13,SE,135,22.0,26.0,34,0.00,,,0.00,meteohub,2013-04-24 18:31:00,
2013-04-24 13:36:00,49.5,22.3,30.13,SE,135,18.0,22.0,34,0.00,,,0.00,meteohub,2013-04-24 18:36:00,
2013-04-24 13:41:00,49.8,21.9,30.13,East,90,18.0,22.0,33,0.00,,,0.00,meteohub,2013-04-24 18:41:00,
2013-04-24 13:46:00,50.2,20.7,30.13,SE,135,27.0,27.0,31,0.00,,,0.00,meteohub,2013-04-24 18:46:00,
2013-04-24 13:51:00,49.8,21.2,30.13,East,90,12.0,27.0,32,0.00,,,0.00,meteohub,2013-04-24 18:51:00,
2013-04-24 13:56:00,50.7,22.6,30.12,South,180,19.0,27.0,33,0.00,,,0.00,meteohub,2013-04-24 18:56:00,
2013-04-24 14:01:00,50.5,19.4,30.12,East,90,16.0,27.0,29,0.00,,,0.00,meteohub,2013-04-24 19:01:00,
2013-04-24 14:06:00,50.7,19.6,30.12,East,90,17.0,23.0,29,0.00,,,0.00,meteohub,2013-04-24 19:06:00,
2013-04-24 14:11:00,50.5,20.3,30.12,NE,45,11.0,23.0,30,0.00,,,0.00,meteohub,2013-04-24 19:11:00,
2013-04-24 14:16:00,50.5,21.0,30.12,East,90,23.0,23.0,31,0.00,,,0.00,meteohub,2013-04-24 19:16:00,
2013-04-24 14:21:00,50.9,21.4,30.11,East,90,21.0,23.0,31,0.00,,,0.00,meteohub,2013-04-24 19:21:00,
2013-04-24 14:26:00,50.9,20.5,30.11,SE,135,14.0,23.0,30,0.00,,,0.00,meteohub,2013-04-24 19:26:00,
2013-04-24 14:32:00,51.1,20.7,30.12,SE,135,17.0,23.0,30,0.00,,,0.00,meteohub,2013-04-24 19:32:00,
2013-04-24 14:37:00,50.5,18.7,30.12,ESE,113,19.0,27.0,28,0.00,,,0.00,meteohub,2013-04-24 19:37:00,
2013-04-24 14:42:00,50.9,19.8,30.11,ESE,113,17.0,27.0,29,0.00,,,0.00,meteohub,2013-04-24 19:42:00,
2013-04-24 14:47:00,50.7,20.5,30.11,South,180,11.0,27.0,30,0.00,,,0.00,meteohub,2013-04-24 19:47:00,
2013-04-24 14:52:00,51.3,21.6,30.12,ESE,113,21.0,27.0,31,0.00,,,0.00,meteohub,2013-04-24 19:52:00,
2013-04-24 14:57:00,51.1,20.7,30.12,SE,135,18.0,25.0,30,0.00,,,0.00,meteohub,2013-04-24 19:57:00,
2013-04-24 15:02:00,50.5,20.3,30.12,SE,135,14.0,25.0,30,0.00,,,0.00,meteohub,2013-04-24 20:02:00,
2013-04-24 15:07:00,50.5,20.3,30.12,SE,135,14.0,25.0,30,0.00,,,0.00,meteohub,2013-04-24 20:07:00,
2013-04-24 15:12:00,50.9,21.4,30.12,SE,135,21.0,27.0,31,0.00,,,0.00,meteohub,2013-04-24 20:12:00,
2013-04-24 15:17:00,50.5,21.7,30.12,South,180,20.0,27.0,32,0.00,,,0.00,meteohub,2013-04-24 20:17:00,
2013-04-24 15:22:00,50.0,21.4,30.11,SE,135,24.0,27.0,32,0.00,,,0.00,meteohub,2013-04-24 20:22:00,
2013-04-24 15:27:00,49.8,21.9,30.11,South,180,12.0,24.0,33,0.00,,,0.00,meteohub,2013-04-24 20:27:00,
2013-04-24 15:32:00,50.4,20.1,30.11,South,180,16.0,24.0,30,0.00,,,0.00,meteohub,2013-04-24 20:32:00,
2013-04-24 15:37:00,50.5,19.4,30.11,SE,135,22.0,24.0,29,0.00,,,0.00,meteohub,2013-04-24 20:37:00,
2013-04-24 15:42:00,50.0,17.2,30.11,ESE,113,11.0,24.0,27,0.00,,,0.00,meteohub,2013-04-24 20:42:00,
2013-04-24 15:47:00,50.4,19.2,30.11,SE,135,17.0,24.0,29,0.00,,,0.00,meteohub,2013-04-24 20:47:00,
2013-04-24 15:52:00,50.4,20.1,30.10,SE,135,13.0,24.0,30,0.00,,,0.00,meteohub,2013-04-24 20:52:00,
2013-04-24 15:57:00,50.2,19.2,30.11,SSE,158,15.0,23.0,29,0.00,,,0.00,meteohub,2013-04-24 20:57:00,
2013-04-24 16:02:00,49.3,19.9,30.10,South,180,19.0,23.0,31,0.00,,,0.00,meteohub,2013-04-24 21:02:00,
2013-04-24 16:07:00,48.9,20.3,30.11,South,180,11.0,29.0,32,0.00,,,0.00,meteohub,2013-04-24 21:07:00,
2013-04-24 16:12:00,48.7,20.8,30.10,South,180,21.0,29.0,33,0.00,,,0.00,meteohub,2013-04-24 21:12:00,
2013-04-24 16:17:00,48.9,22.5,30.11,SSE,158,15.0,29.0,35,0.00,,,0.00,meteohub,2013-04-24 21:17:00,
2013-04-24 16:22:00,48.7,23.0,30.10,South,180,9.0,22.0,36,0.00,,,0.00,meteohub,2013-04-24 21:22:00,
2013-04-24 16:27:00,49.3,23.5,30.10,South,180,16.0,22.0,36,0.00,,,0.00,meteohub,2013-04-24 21:27:00,
2013-04-24 16:32:00,49.1,23.4,30.10,SW,225,13.0,23.0,36,0.00,,,0.00,meteohub,2013-04-24 21:32:00,
2013-04-24 16:37:00,48.7,23.0,30.09,SE,135,16.0,23.0,36,0.00,,,0.00,meteohub,2013-04-24 21:37:00,
2013-04-24 16:42:00,48.7,23.5,30.10,South,180,21.0,24.0,37,0.00,,,0.00,meteohub,2013-04-24 21:42:00,
2013-04-24 16:47:00,48.6,22.1,30.10,South,180,21.0,29.0,35,0.00,,,0.00,meteohub,2013-04-24 21:47:00,
2013-04-24 16:52:00,48.4,21.4,30.10,SW,225,14.0,29.0,34,0.00,,,0.00,meteohub,2013-04-24 21:52:00,
2013-04-24 16:57:00,48.0,21.0,30.10,South,180,25.0,29.0,34,0.00,,,0.00,meteohub,2013-04-24 21:57:00,
2013-04-24 17:02:00,47.8,20.8,30.11,SE,135,17.0,25.0,34,0.00,,,0.00,meteohub,2013-04-24 22:02:00,
2013-04-24 17:07:00,47.8,20.8,30.11,SE,135,17.0,25.0,34,0.00,,,0.00,meteohub,2013-04-24 22:07:00,
2013-04-24 17:12:00,47.3,19.6,30.11,South,180,8.0,25.0,33,0.00,,,0.00,meteohub,2013-04-24 22:12:00,
2013-04-24 17:17:00,47.5,21.2,30.11,South,180,15.0,19.0,35,0.00,,,0.00,meteohub,2013-04-24 22:17:00,
2013-04-24 17:22:00,47.1,22.1,30.10,South,180,18.0,19.0,37,0.00,,,0.00,meteohub,2013-04-24 22:22:00,
2013-04-24 17:27:00,46.9,22.1,30.11,South,180,10.0,23.0,37,0.00,,,0.00,meteohub,2013-04-24 22:27:00,
2013-04-24 17:32:00,46.9,22.1,30.10,South,180,11.0,23.0,37,0.00,,,0.00,meteohub,2013-04-24 22:32:00,
2013-04-24 17:37:00,46.8,22.5,30.10,South,180,14.0,23.0,38,0.00,,,0.00,meteohub,2013-04-24 22:37:00,
2013-04-24 17:42:00,46.6,22.3,30.10,South,180,11.0,17.0,38,0.00,,,0.00,meteohub,2013-04-24 22:42:00,
2013-04-24 17:47:00,46.6,23.5,30.10,South,180,8.0,17.0,40,0.00,,,0.00,meteohub,2013-04-24 22:47:00,
2013-04-24 17:52:00,46.6,25.9,30.10,SSW,203,12.0,17.0,44,0.00,,,0.00,meteohub,2013-04-24 22:52:00,
2013-04-24 17:57:00,46.0,27.5,30.11,South,180,8.0,17.0,48,0.00,,,0.00,meteohub,2013-04-24 22:57:00,
2013-04-24 18:02:00,45.5,27.5,30.11,NW,315,5.0,14.0,49,0.00,,,0.00,meteohub,2013-04-24 23:02:00,
2013-04-24 18:07:00,43.9,30.0,30.11,SW,225,11.0,13.0,58,0.00,,,0.00,meteohub,2013-04-24 23:07:00,
2013-04-24 18:12:00,42.1,30.7,30.11,West,270,11.0,18.0,64,0.00,,,0.00,meteohub,2013-04-24 23:12:00,
2013-04-24 18:17:00,41.2,31.5,30.11,SW,225,18.0,18.0,68,0.00,,,0.00,meteohub,2013-04-24 23:17:00,
2013-04-24 18:22:00,40.5,31.8,30.11,South,180,12.0,18.0,71,0.00,,,0.00,meteohub,2013-04-24 23:22:00,
2013-04-24 18:27:00,39.9,31.3,30.11,West,270,14.0,18.0,71,0.00,,,0.00,meteohub,2013-04-24 23:27:00,
2013-04-24 18:32:00,39.6,30.9,30.12,SW,225,17.0,18.0,71,0.00,,,0.00,meteohub,2013-04-24 23:32:00,
2013-04-24 18:37:00,39.2,30.9,30.12,SW,225,6.0,17.0,72,0.00,,,0.00,meteohub,2013-04-24 23:37:00,
2013-04-24 18:42:00,39.2,30.9,30.13,SW,225,9.0,17.0,72,0.00,,,0.00,meteohub,2013-04-24 23:42:00,
2013-04-24 18:47:00,38.8,30.9,30.13,SSW,203,11.0,17.0,73,0.00,,,0.00,meteohub,2013-04-24 23:47:00,
2013-04-24 18:52:00,38.7,31.1,30.13,SW,225,8.0,11.0,74,0.00,,,0.00,meteohub,2013-04-24 23:52:00,
2013-04-24 18:57:00,38.1,30.9,30.13,SW,225,4.0,11.0,75,0.00,,,0.00,meteohub,2013-04-24 23:57:00,
2013-04-24 19:02:00,37.9,31.1,30.13,West,270,7.0,11.0,76,0.00,,,0.00,meteohub,2013-04-25 00:02:00,
2013-04-24 19:07:00,37.6,31.6,30.12,SW,225,8.0,11.0,79,0.00,,,0.00,meteohub,2013-04-25 00:07:00,
2013-04-24 19:12:00,37.0,30.6,30.13,SSW,203,4.0,10.0,77,0.00,,,0.00,meteohub,2013-04-25 00:12:00,
2013-04-24 19:17:00,36.9,30.6,30.12,SW,225,9.0,9.0,78,0.00,,,0.00,meteohub,2013-04-25 00:17:00,
2013-04-24 19:22:00,36.7,30.7,30.13,SW,225,8.0,9.0,79,0.01,,,0.01,meteohub,2013-04-25 00:22:00,
2013-04-24 19:27:00,36.5,30.6,30.12,South,180,5.0,9.0,79,0.01,,,0.01,meteohub,2013-04-25 00:27:00,
2013-04-24 19:32:00,36.3,30.4,30.12,South,180,5.0,9.0,79,0.01,,,0.01,meteohub,2013-04-25 00:32:00,
2013-04-24 19:37:00,36.5,30.6,30.12,South,180,3.0,8.0,79,0.01,,,0.01,meteohub,2013-04-25 00:37:00,
2013-04-24 19:42:00,36.5,30.6,30.11,North,0,2.0,8.0,79,0.01,,,0.01,meteohub,2013-04-25 00:42:00,
2013-04-24 19:47:00,36.5,30.6,30.11,West,270,2.0,8.0,79,0.01,,,0.01,meteohub,2013-04-25 00:47:00,
2013-04-24 19:52:00,36.5,30.6,30.11,SW,225,0.0,4.0,79,0.01,,,0.01,meteohub,2013-04-25 00:52:00,
2013-04-24 19:57:00,36.5,30.6,30.12,SSE,158,2.0,2.0,79,0.01,,,0.01,meteohub,2013-04-25 00:57:00,
2013-04-24 20:02:00,36.9,30.9,30.13,East,90,2.0,2.0,79,0.01,,,0.01,meteohub,2013-04-25 01:02:00,
2013-04-24 20:07:00,36.9,30.6,30.13,South,180,4.0,4.0,78,0.01,,,0.01,meteohub,2013-04-25 01:07:00,
2013-04-24 20:12:00,36.7,30.6,30.14,South,180,4.0,5.0,78,0.01,,,0.01,meteohub,2013-04-25 01:12:00,
2013-04-24 20:17:00,36.5,30.4,30.14,South,180,2.0,5.0,78,0.00,,,0.01,meteohub,2013-04-25 01:17:00,
2013-04-24 20:22:00,36.5,30.4,30.14,South,180,3.0,5.0,78,0.00,,,0.01,meteohub,2013-04-25 01:22:00,
2013-04-24 20:27:00,36.3,30.2,30.14,South,180,3.0,4.0,78,0.00,,,0.01,meteohub,2013-04-25 01:27:00,
2013-04-24 20:32:00,36.3,30.2,30.14,South,180,6.0,6.0,78,0.00,,,0.01,meteohub,2013-04-25 01:32:00,
2013-04-24 20:37:00,36.0,29.8,30.15,South,180,2.0,6.0,78,0.00,,,0.01,meteohub,2013-04-25 01:37:00,
2013-04-24 20:42:00,36.0,29.8,30.15,SE,135,2.0,6.0,78,0.00,,,0.01,meteohub,2013-04-25 01:42:00,
2013-04-24 20:47:00,35.8,29.7,30.15,South,180,4.0,6.0,78,0.00,,,0.01,meteohub,2013-04-25 01:47:00,
2013-04-24 20:52:00,35.8,29.7,30.15,SE,135,2.0,4.0,78,0.00,,,0.01,meteohub,2013-04-25 01:52:00,
2013-04-24 20:57:00,35.8,29.7,30.15,South,180,4.0,4.0,78,0.00,,,0.01,meteohub,2013-04-25 01:57:00,
2013-04-24 21:02:00,35.8,29.7,30.16,South,180,5.0,5.0,78,0.00,,,0.01,meteohub,2013-04-25 02:02:00,
2013-04-24 21:07:00,35.8,29.7,30.16,South,180,5.0,5.0,78,0.00,,,0.01,meteohub,2013-04-25 02:07:00,
2013-04-24 21:12:00,36.0,29.8,30.16,South,180,7.0,7.0,78,0.00,,,0.01,meteohub,2013-04-25 02:12:00,
2013-04-24 21:17:00,35.8,29.7,30.16,South,180,6.0,11.0,78,0.00,,,0.01,meteohub,2013-04-25 02:17:00,
2013-04-24 21:22:00,35.8,29.7,30.17,East,90,7.0,11.0,78,0.00,,,0.01,meteohub,2013-04-25 02:22:00,
2013-04-24 21:27:00,35.6,29.7,30.17,South,180,7.0,11.0,79,0.00,,,0.01,meteohub,2013-04-25 02:27:00,
2013-04-24 21:32:00,35.6,29.7,30.17,South,180,6.0,8.0,79,0.00,,,0.01,meteohub,2013-04-25 02:32:00,
2013-04-24 21:37:00,35.6,29.7,30.17,ESE,113,4.0,8.0,79,0.00,,,0.01,meteohub,2013-04-25 02:37:00,
2013-04-24 21:42:00,35.6,29.7,30.17,South,180,4.0,8.0,79,0.00,,,0.01,meteohub,2013-04-25 02:42:00,
2013-04-24 21:47:00,35.4,29.8,30.17,SE,135,5.0,8.0,80,0.00,,,0.01,meteohub,2013-04-25 02:47:00,
2013-04-24 21:52:00,35.4,29.8,30.17,East,90,3.0,8.0,80,0.00,,,0.01,meteohub,2013-04-25 02:52:00,
2013-04-24 21:57:00,35.4,29.8,30.17,South,180,8.0,8.0,80,0.00,,,0.01,meteohub,2013-04-25 02:57:00,
2013-04-24 22:02:00,35.4,29.8,30.17,South,180,3.0,8.0,80,0.00,,,0.01,meteohub,2013-04-25 03:02:00,
2013-04-24 22:07:00,35.4,29.8,30.17,South,180,6.0,8.0,80,0.00,,,0.01,meteohub,2013-04-25 03:07:00,
2013-04-24 22:12:00,35.6,29.7,30.17,SE,135,5.0,8.0,79,0.00,,,0.01,meteohub,2013-04-25 03:12:00,
2013-04-24 22:17:00,35.6,29.7,30.17,South,180,4.0,6.0,79,0.00,,,0.01,meteohub,2013-04-25 03:17:00,
2013-04-24 22:22:00,35.8,30.2,30.17,South,180,6.0,8.0,80,0.00,,,0.01,meteohub,2013-04-25 03:22:00,
2013-04-24 22:27:00,36.0,30.4,30.17,SE,135,4.0,10.0,80,0.00,,,0.01,meteohub,2013-04-25 03:27:00,
2013-04-24 22:32:00,36.1,30.6,30.17,SSE,158,5.0,10.0,80,0.00,,,0.01,meteohub,2013-04-25 03:32:00,
2013-04-24 22:37:00,36.3,30.7,30.18,South,180,11.0,11.0,80,0.00,,,0.01,meteohub,2013-04-25 03:37:00,
2013-04-24 22:42:00,36.3,30.7,30.18,SE,135,7.0,11.0,80,0.00,,,0.01,meteohub,2013-04-25 03:42:00,
2013-04-24 22:47:00,36.5,30.9,30.18,SSE,158,11.0,11.0,80,0.00,,,0.01,meteohub,2013-04-25 03:47:00,
2013-04-24 22:52:00,36.5,30.6,30.18,South,180,6.0,11.0,79,0.00,,,0.01,meteohub,2013-04-25 03:52:00,
2013-04-24 22:57:00,36.5,30.6,30.17,SE,135,12.0,12.0,79,0.00,,,0.01,meteohub,2013-04-25 03:57:00,
2013-04-24 23:01:00,36.5,30.6,30.17,South,180,9.0,12.0,79,0.00,,,0.01,meteohub,2013-04-25 04:01:00,
2013-04-24 23:02:00,36.5,30.6,30.17,South,180,9.0,12.0,79,0.00,,,0.01,meteohub,2013-04-25 04:02:00,
2013-04-24 23:04:00,36.5,30.6,30.17,South,180,9.0,12.0,79,0.00,,,0.01,meteohub,2013-04-25 04:04:00,
2013-04-24 23:09:00,36.5,30.6,30.17,South,180,11.0,12.0,79,0.00,,,0.01,meteohub,2013-04-25 04:09:00,
2013-04-24 23:10:00,36.7,30.7,30.17,SE,135,11.0,12.0,79,0.00,,,0.01,meteohub,2013-04-25 04:10:00,
2013-04-24 23:15:00,36.7,30.7,30.17,South,180,9.0,13.0,79,0.00,,,0.01,meteohub,2013-04-25 04:15:00,
2013-04-24 23:20:00,36.7,30.7,30.17,ESE,113,5.0,13.0,79,0.00,,,0.01,meteohub,2013-04-25 04:20:00,
2013-04-24 23:25:00,36.7,30.7,30.17,South,180,15.0,15.0,79,0.00,,,0.01,meteohub,2013-04-25 04:25:00,
2013-04-24 23:30:00,36.9,30.6,30.17,South,180,5.0,15.0,78,0.00,,,0.01,meteohub,2013-04-25 04:30:00,
2013-04-24 23:35:00,36.9,30.6,30.17,South,180,8.0,15.0,78,0.00,,,0.01,meteohub,2013-04-25 04:35:00,
2013-04-24 23:40:00,36.9,30.6,30.17,South,180,8.0,15.0,78,0.00,,,0.01,meteohub,2013-04-25 04:40:00,
2013-04-24 23:46:00,36.9,30.6,30.18,South,180,6.0,15.0,78,0.00,,,0.01,meteohub,2013-04-25 04:46:00,
2013-04-24 23:51:00,36.7,30.2,30.18,SW,225,7.0,12.0,77,0.00,,,0.01,meteohub,2013-04-25 04:51:00,
2013-04-24 23:56:00,36.7,30.2,30.17,South,180,11.0,11.0,77,0.00,,,0.01,meteohub,2013-04-25 04:56:00,